createdAt,value
2022-10-11T00:00:53.990Z,13.27
2022-10-11T00:03:21.647Z,15.68
2022-10-11T00:05:48.913Z,17.35
2022-10-11T00:08:16.079Z,16.02
2022-10-11T00:10:43.331Z,20.75
2022-10-11T00:13:10.606Z,15.15
2022-10-11T00:15:40.940Z,24.70
2022-10-11T00:18:08.204Z,17.85
2022-10-11T00:20:35.365Z,17.55
2022-10-11T00:23:02.528Z,22.95
2022-10-11T00:25:29.681Z,21.02
2022-10-11T00:27:56.906Z,20.92
2022-10-11T00:30:24.095Z,25.63
2022-10-11T00:32:51.228Z,25.42
2022-10-11T00:35:18.374Z,25.95
2022-10-11T00:37:45.949Z,20.15
2022-10-11T00:40:15.789Z,24.52
2022-10-11T00:42:42.876Z,31.20
2022-10-11T00:45:28.435Z,23.40
2022-10-11T00:47:56.705Z,21.58
2022-10-11T00:50:25.356Z,29.60
2022-10-11T00:52:58.236Z,55.38
2022-10-11T00:55:28.250Z,25.08
2022-10-11T00:57:56.343Z,27.25
2022-10-11T01:00:23.503Z,23.33
2022-10-11T01:02:50.777Z,25.27
2022-10-11T01:05:29.150Z,25.85
2022-10-11T01:07:58.313Z,25.45
2022-10-11T01:10:25.954Z,26.17
2022-10-11T01:13:02.341Z,24.52
2022-10-11T01:15:29.457Z,29.55
2022-10-11T01:18:02.664Z,25.10
2022-10-11T01:20:39.160Z,29.55
2022-10-11T01:23:25.287Z,32.55
2022-10-11T01:26:08.140Z,32.50
2022-10-11T01:28:47.729Z,31.20
2022-10-11T01:31:26.712Z,29.02
2022-10-11T01:34:05.450Z,34.72
2022-10-11T01:36:34.742Z,40.30
2022-10-11T01:39:07.390Z,35.72
2022-10-11T01:44:03.300Z,41.80
2022-10-11T01:46:31.340Z,34.03
2022-10-11T01:49:00.612Z,49.75
2022-10-11T01:51:32.448Z,39.42
2022-10-11T01:54:10.018Z,40.20
2022-10-11T01:56:43.331Z,44.63
2022-10-11T01:59:29.315Z,42.28
2022-10-11T02:02:22.794Z,48.13
2022-10-11T02:05:10.212Z,48.95
2022-10-11T02:07:46.432Z,47.42
2022-10-11T02:10:21.215Z,50.80
2022-10-11T02:13:14.769Z,47.00
2022-10-11T02:15:43.275Z,49.45
2022-10-11T02:18:13.307Z,52.53
2022-10-11T02:20:42.103Z,49.72
2022-10-11T02:23:11.829Z,46.10
2022-10-11T02:25:39.337Z,48.97
2022-10-11T02:28:11.399Z,44.97
2022-10-11T02:30:39.616Z,47.80
2022-10-11T02:33:08.991Z,44.10
2022-10-11T02:35:39.864Z,48.15
2022-10-11T02:38:12.227Z,48.35
2022-10-11T02:40:42.466Z,44.80
2022-10-11T02:43:18.809Z,45.97
2022-10-11T02:45:50.582Z,46.17
2022-10-11T02:48:18.037Z,51.00
2022-10-11T02:50:45.367Z,46.50
2022-10-11T02:53:12.500Z,49.08
2022-10-11T02:55:39.649Z,40.40
2022-10-11T02:58:06.840Z,41.72
2022-10-11T03:00:34.072Z,45.28
2022-10-11T03:03:01.236Z,43.08
2022-10-11T03:05:28.422Z,36.45
2022-10-11T03:07:55.650Z,37.30
2022-10-11T03:10:22.826Z,31.65
2022-10-11T03:12:50.186Z,31.83
2022-10-11T03:15:17.470Z,32.00
2022-10-11T03:17:44.657Z,29.23
2022-10-11T03:20:11.958Z,23.75
2022-10-11T03:22:39.109Z,24.90
2022-10-11T03:25:06.392Z,25.85
2022-10-11T03:27:34.389Z,25.20
2022-10-11T03:30:01.575Z,29.17
2022-10-11T03:32:29.146Z,25.52
2022-10-11T03:34:56.529Z,28.13
2022-10-11T03:37:23.752Z,26.02
2022-10-11T03:39:51.102Z,28.85
2022-10-11T03:42:18.183Z,27.00
2022-10-11T03:44:45.414Z,24.85
2022-10-11T03:47:12.808Z,23.35
2022-10-11T03:49:43.458Z,27.33
2022-10-11T03:52:11.359Z,24.50
2022-10-11T03:54:38.489Z,23.15
2022-10-11T03:57:05.613Z,21.27
2022-10-11T03:59:32.716Z,19.90
2022-10-11T04:01:59.932Z,26.05
2022-10-11T04:04:27.148Z,22.05
2022-10-11T04:06:54.251Z,28.33
2022-10-11T04:09:21.431Z,19.13
2022-10-11T04:11:48.544Z,20.48
2022-10-11T04:14:15.670Z,17.90
2022-10-11T04:16:42.899Z,20.77
2022-10-11T04:19:10.074Z,21.80
2022-10-11T04:21:37.436Z,13.55
2022-10-11T04:24:04.746Z,14.95
2022-10-11T04:26:31.961Z,10.00
2022-10-11T04:28:59.173Z,7.47
2022-10-11T04:31:26.330Z,9.15
2022-10-11T04:37:49.209Z,8.20
2022-10-11T04:40:24.378Z,7.57
2022-10-11T04:43:04.308Z,9.60
2022-10-11T04:45:42.745Z,9.07
2022-10-11T04:53:18.352Z,9.95
2022-10-11T04:55:45.743Z,12.50
2022-10-11T04:58:17.471Z,11.10
2022-10-11T05:00:44.781Z,7.40
2022-10-11T05:03:12.088Z,10.57
2022-10-11T05:05:39.489Z,11.35
2022-10-11T05:08:06.880Z,10.95
2022-10-11T05:10:37.327Z,9.93
2022-10-11T05:13:06.470Z,9.68
2022-10-11T05:15:34.000Z,13.90
2022-10-11T05:18:03.430Z,14.10
2022-10-11T05:20:30.622Z,9.35
2022-10-11T05:22:57.834Z,7.78
2022-10-11T05:25:27.879Z,8.77
2022-10-11T05:27:54.968Z,7.95
2022-10-11T05:30:22.133Z,13.35
2022-10-11T05:32:52.314Z,12.07
2022-10-11T05:35:19.713Z,7.93
2022-10-11T05:40:17.624Z,19.77
2022-10-11T05:42:44.898Z,12.45
2022-10-11T05:45:12.163Z,10.63
2022-10-11T05:47:39.309Z,10.43
2022-10-11T05:50:09.135Z,12.05
2022-10-11T05:52:36.432Z,16.95
2022-10-11T05:55:12.407Z,15.73
2022-10-11T05:57:42.355Z,13.57
2022-10-11T06:00:12.926Z,10.98
2022-10-11T06:02:44.858Z,10.18
2022-10-11T06:05:11.983Z,11.32
2022-10-11T06:07:39.165Z,8.98
2022-10-11T06:10:06.824Z,11.20
2022-10-11T06:12:34.493Z,13.38
2022-10-11T06:15:04.124Z,5.88
2022-10-11T06:17:41.189Z,11.75
2022-10-11T06:20:11.986Z,14.07
2022-10-11T06:22:58.975Z,7.35
2022-10-11T06:25:29.275Z,14.57
2022-10-11T06:28:02.366Z,9.32
2022-10-11T06:30:36.676Z,7.82
2022-10-11T06:33:07.445Z,12.70
2022-10-11T06:35:37.193Z,10.40
2022-10-11T06:38:06.055Z,8.02
2022-10-11T06:40:33.342Z,13.80
2022-10-11T06:43:00.762Z,6.07
2022-10-11T06:45:29.654Z,9.77
2022-10-11T06:48:00.874Z,12.43
2022-10-11T06:50:58.086Z,12.88
2022-10-11T06:53:21.455Z,12.18
2022-10-11T06:55:54.874Z,10.50
2022-10-11T06:58:35.443Z,8.35
2022-10-11T07:01:24.216Z,10.35
2022-10-11T07:03:55.935Z,9.95
2022-10-11T07:06:27.054Z,9.07
2022-10-11T07:09:17.203Z,15.13
2022-10-11T07:12:07.092Z,10.07
2022-10-11T07:14:34.466Z,11.98
2022-10-11T07:17:01.717Z,11.02
2022-10-11T07:19:51.792Z,9.10
2022-10-11T07:22:19.104Z,12.05
2022-10-11T07:24:46.335Z,8.75
2022-10-11T07:27:13.592Z,12.07
2022-10-11T07:29:40.823Z,10.82
2022-10-11T07:32:14.378Z,10.63
2022-10-11T07:34:41.581Z,4.53
2022-10-11T07:37:08.768Z,14.52
2022-10-11T07:39:36.070Z,9.15
2022-10-11T07:42:03.323Z,14.23
2022-10-11T07:44:30.992Z,7.80
2022-10-11T07:46:58.150Z,12.43
2022-10-11T07:49:25.256Z,13.57
2022-10-11T07:51:52.396Z,17.55
2022-10-11T07:54:19.643Z,11.40
2022-10-11T07:56:46.743Z,10.15
2022-10-11T07:59:13.864Z,9.40
2022-10-11T08:01:43.570Z,25.25
2022-10-11T08:04:11.231Z,6.53
2022-10-11T08:06:38.762Z,11.25
2022-10-11T08:09:06.381Z,13.98
2022-10-11T08:11:34.981Z,13.90
2022-10-11T08:14:04.505Z,13.82
2022-10-11T08:16:31.605Z,11.82
2022-10-11T08:18:58.842Z,11.45
2022-10-11T08:21:28.290Z,9.57
2022-10-11T08:23:55.486Z,14.30
2022-10-11T08:26:23.820Z,8.07
2022-10-11T08:28:51.038Z,15.13
2022-10-11T08:31:18.160Z,13.50
2022-10-11T08:33:45.372Z,10.73
2022-10-11T08:36:13.611Z,10.85
2022-10-11T08:38:41.487Z,12.15
2022-10-11T08:41:24.944Z,12.25
2022-10-11T08:43:55.221Z,15.75
2022-10-11T08:46:24.553Z,12.85
2022-10-11T08:48:55.104Z,12.93
2022-10-11T08:51:31.774Z,10.20
2022-10-11T08:54:19.249Z,14.32
2022-10-11T08:56:46.804Z,9.75
2022-10-11T08:59:14.031Z,10.15
2022-10-11T09:01:43.903Z,15.05
2022-10-11T09:04:18.597Z,14.45
2022-10-11T09:07:04.775Z,9.45
2022-10-11T09:09:35.224Z,13.20
2022-10-11T09:12:11.085Z,12.75
2022-10-11T09:14:38.215Z,14.88
2022-10-11T09:17:24.143Z,8.65
2022-10-11T09:20:06.670Z,14.10
2022-10-11T09:22:43.274Z,12.27
2022-10-11T09:25:16.918Z,5.28
2022-10-11T09:28:03.682Z,15.50
2022-10-11T09:30:31.285Z,11.27
2022-10-11T09:33:04.449Z,7.93
2022-10-11T09:35:36.308Z,13.27
2022-10-11T09:38:08.407Z,16.17
2022-10-11T09:40:44.647Z,10.23
2022-10-11T09:43:12.768Z,7.75
2022-10-11T09:45:49.127Z,10.00
2022-10-11T09:48:20.015Z,10.68
2022-10-11T09:50:47.428Z,15.10
2022-10-11T09:53:14.517Z,10.10
2022-10-11T09:56:01.771Z,9.15
2022-10-11T09:58:28.854Z,12.93
2022-10-11T10:01:07.952Z,8.98
2022-10-11T10:03:40.130Z,11.70
2022-10-11T10:06:08.362Z,9.67
2022-10-11T10:08:36.395Z,14.55
2022-10-11T10:11:05.071Z,8.63
2022-10-11T10:13:38.075Z,8.95
2022-10-11T10:16:05.966Z,20.48
2022-10-11T10:18:33.298Z,11.77
2022-10-11T10:21:02.026Z,11.77
2022-10-11T10:23:30.730Z,12.15
2022-10-11T10:26:18.945Z,10.40
2022-10-11T10:29:12.588Z,12.05
2022-10-11T10:32:01.894Z,15.27
2022-10-11T10:34:26.865Z,11.55
2022-10-11T10:36:55.982Z,13.25
2022-10-11T10:39:30.046Z,11.35
2022-10-11T10:41:57.315Z,7.13
2022-10-11T10:44:24.373Z,11.52
2022-10-11T10:47:05.531Z,10.73
2022-10-11T10:49:54.145Z,10.90
2022-10-11T10:52:21.706Z,9.68
2022-10-11T10:54:55.082Z,11.88
2022-10-11T10:57:47.952Z,11.18
2022-10-11T11:00:17.616Z,7.97
2022-10-11T11:02:53.542Z,9.20
2022-10-11T11:05:21.229Z,10.82
2022-10-11T11:07:55.032Z,12.32
2022-10-11T11:10:34.550Z,7.35
2022-10-11T11:13:16.576Z,7.25
2022-10-11T11:15:52.438Z,9.53
2022-10-11T11:18:20.319Z,13.05
2022-10-11T11:21:09.832Z,8.88
2022-10-11T11:23:46.114Z,7.75
2022-10-11T11:26:23.350Z,9.95
2022-10-11T11:29:08.882Z,12.15
2022-10-11T11:31:48.072Z,7.60
2022-10-11T11:34:26.642Z,12.02
2022-10-11T11:37:06.620Z,10.82
2022-10-11T11:39:37.320Z,12.98
2022-10-11T11:42:33.512Z,10.75
2022-10-11T11:45:04.933Z,7.18
2022-10-11T11:47:34.729Z,8.45
2022-10-11T11:50:29.598Z,10.25
2022-10-11T11:53:00.363Z,7.38
2022-10-11T11:55:33.707Z,6.93
2022-10-11T11:58:16.903Z,11.55
2022-10-11T12:00:53.900Z,8.32
2022-10-11T12:03:47.451Z,7.68
2022-10-11T12:06:17.541Z,7.82
2022-10-11T12:08:46.999Z,8.07
2022-10-11T12:11:21.874Z,7.80
2022-10-11T12:13:50.518Z,5.70
2022-10-11T12:16:18.097Z,8.90
2022-10-11T12:18:57.209Z,7.13
2022-10-11T12:21:27.391Z,9.25
2022-10-11T12:23:56.516Z,9.13
2022-10-11T12:26:29.650Z,6.70
2022-10-11T12:28:59.868Z,8.32
2022-10-11T12:31:28.686Z,7.53
2022-10-11T12:33:58.763Z,9.45
2022-10-11T12:36:31.383Z,5.50
2022-10-11T12:41:37.731Z,9.75
2022-10-11T12:44:14.221Z,7.47
2022-10-11T12:46:42.938Z,11.32
2022-10-11T12:49:25.364Z,7.57
2022-10-11T12:51:58.563Z,7.82
2022-10-11T12:54:28.261Z,6.32
2022-10-11T12:57:12.158Z,9.38
2022-10-11T12:59:44.832Z,11.98
2022-10-11T13:02:28.848Z,5.32
2022-10-11T13:05:25.235Z,4.90
2022-10-11T13:07:54.564Z,6.65
2022-10-11T13:10:26.821Z,5.25
2022-10-11T13:12:54.392Z,8.52
2022-10-11T13:15:22.736Z,8.15
2022-10-11T13:17:52.801Z,6.65
2022-10-11T13:20:24.517Z,6.55
2022-10-11T13:22:53.115Z,11.50
2022-10-11T13:25:28.518Z,7.20
2022-10-11T13:27:56.666Z,8.73
2022-10-11T13:30:29.540Z,9.57
2022-10-11T13:32:57.276Z,9.13
2022-10-11T13:35:27.577Z,6.95
2022-10-11T13:37:57.238Z,4.30
2022-10-11T13:40:24.678Z,8.05
2022-10-11T13:42:53.050Z,7.28
2022-10-11T13:45:25.214Z,8.68
2022-10-11T13:47:53.358Z,6.82
2022-10-11T13:50:30.649Z,7.47
2022-10-11T13:52:57.999Z,5.03
2022-10-11T13:55:27.979Z,7.07
2022-10-11T13:57:55.535Z,5.28
2022-10-11T14:00:24.799Z,8.88
2022-10-11T14:03:15.329Z,7.30
2022-10-11T14:05:43.818Z,5.47
2022-10-11T14:08:23.875Z,10.02
2022-10-11T14:10:56.661Z,3.97
2022-10-11T14:13:30.339Z,6.22
2022-10-11T14:16:00.642Z,6.53
2022-10-11T14:18:39.994Z,6.95
2022-10-11T14:21:25.528Z,8.00
2022-10-11T14:24:04.904Z,8.57
2022-10-11T14:26:34.492Z,8.38
2022-10-11T14:29:02.969Z,3.85
2022-10-11T14:31:30.378Z,5.72
2022-10-11T14:33:57.936Z,3.22
2022-10-11T14:36:26.107Z,6.55
2022-10-11T14:38:53.935Z,7.20
2022-10-11T14:41:21.071Z,10.35
2022-10-11T14:43:50.818Z,6.25
2022-10-11T14:46:20.721Z,10.02
2022-10-11T14:48:55.504Z,7.10
2022-10-11T14:51:25.453Z,7.82
2022-10-11T14:53:52.598Z,7.22
2022-10-11T14:56:22.072Z,6.65
2022-10-11T14:58:49.632Z,8.18
2022-10-11T15:01:17.452Z,5.55
2022-10-11T15:03:44.690Z,8.13
2022-10-11T15:06:17.294Z,10.25
2022-10-11T15:11:12.386Z,10.57
2022-10-11T15:13:40.429Z,10.07
2022-10-11T15:16:08.161Z,8.15
2022-10-11T15:18:35.524Z,11.50
2022-10-11T15:21:02.654Z,9.15
2022-10-11T15:23:29.860Z,12.13
2022-10-11T15:25:57.032Z,11.25
2022-10-11T15:28:26.584Z,6.93
2022-10-11T15:30:54.274Z,10.13
2022-10-11T15:33:21.701Z,9.18
2022-10-11T15:35:49.560Z,10.13
2022-10-11T15:38:20.992Z,6.43
2022-10-11T15:40:48.535Z,10.30
2022-10-11T15:43:18.750Z,9.30
2022-10-11T15:45:47.960Z,8.73
2022-10-11T15:48:16.046Z,7.60
2022-10-11T15:50:43.281Z,11.57
2022-10-11T15:53:15.093Z,5.38
2022-10-11T15:55:43.932Z,11.73
2022-10-11T15:58:13.851Z,9.30
2022-10-11T16:00:41.113Z,8.88
2022-10-11T16:03:08.441Z,7.47
2022-10-11T16:05:35.754Z,9.82
2022-10-11T16:08:04.945Z,8.77
2022-10-11T16:10:32.132Z,8.77
2022-10-11T16:13:28.747Z,12.15
2022-10-11T16:15:55.905Z,10.75
2022-10-11T16:18:23.162Z,11.77
2022-10-11T16:20:54.161Z,14.23
2022-10-11T16:23:21.928Z,8.25
2022-10-11T16:25:57.027Z,11.73
2022-10-11T16:28:24.318Z,9.15
2022-10-11T16:30:51.432Z,8.50
2022-10-11T16:33:18.513Z,8.88
2022-10-11T16:35:45.587Z,8.70
2022-10-11T16:38:12.950Z,10.23
2022-10-11T16:40:41.068Z,7.50
2022-10-11T16:43:08.268Z,8.48
2022-10-11T16:45:35.718Z,9.35
2022-10-11T16:48:03.144Z,11.05
2022-10-11T16:50:50.570Z,6.60
2022-10-11T16:53:21.466Z,9.05
2022-10-11T16:58:49.045Z,9.45
2022-10-11T17:01:16.286Z,8.88
2022-10-11T17:03:42.952Z,7.68
2022-10-11T17:06:09.957Z,13.50
2022-10-11T17:08:36.742Z,10.63
2022-10-11T17:11:03.909Z,18.55
2022-10-11T17:13:31.090Z,10.57
2022-10-11T17:15:58.381Z,14.60
2022-10-11T17:18:25.479Z,21.02
2022-10-11T17:21:00.962Z,15.73
2022-10-11T17:23:28.128Z,20.15
2022-10-11T17:25:55.220Z,11.65
2022-10-11T17:28:22.460Z,13.20
2022-10-11T17:30:56.623Z,10.10
2022-10-11T17:33:23.941Z,11.55
2022-10-11T17:35:51.065Z,11.30
2022-10-11T17:38:19.703Z,11.52
2022-10-11T17:40:47.470Z,11.02
2022-10-11T17:43:15.721Z,15.20
2022-10-11T18:35:39.215Z,9.60
2022-10-11T18:38:39.906Z,12.13
2022-10-11T18:47:02.185Z,15.52
2022-10-11T18:49:29.361Z,9.80
2022-10-11T18:51:56.412Z,11.63
2022-10-11T18:54:23.578Z,13.27
2022-10-11T18:56:50.850Z,15.63
2022-10-11T18:59:18.081Z,13.70
2022-10-11T19:01:48.817Z,11.82
2022-10-11T19:04:16.458Z,11.63
2022-10-11T19:06:47.315Z,11.73
2022-10-11T19:09:21.412Z,12.02
2022-10-11T19:11:50.004Z,9.40
2022-10-11T19:14:18.031Z,7.00
2022-10-11T19:16:49.414Z,9.65
2022-10-11T19:19:17.049Z,9.98
2022-10-11T19:21:44.897Z,14.50
2022-10-11T19:24:12.044Z,15.18
2022-10-11T19:26:40.245Z,6.35
2022-10-11T19:29:11.055Z,12.52
2022-10-11T19:31:41.808Z,9.73
2022-10-11T19:34:09.009Z,12.07
2022-10-11T19:36:37.001Z,12.57
2022-10-11T19:39:04.905Z,7.65
2022-10-11T19:41:32.398Z,12.40
2022-10-11T19:43:59.651Z,11.40
2022-10-11T19:49:17.355Z,11.80
2022-10-11T19:51:44.498Z,11.18
2022-10-11T19:54:12.969Z,12.00
2022-10-11T19:56:40.112Z,9.57
2022-10-11T19:59:07.333Z,21.60
2022-10-11T20:01:35.282Z,12.98
2022-10-11T20:04:07.330Z,9.73
2022-10-11T20:06:38.294Z,7.28
2022-10-11T20:09:28.018Z,11.23
2022-10-11T20:11:53.253Z,11.50
2022-10-11T20:14:20.525Z,12.45
2022-10-11T20:16:49.987Z,12.15
2022-10-11T20:19:17.175Z,9.35
2022-10-11T20:21:45.084Z,10.43
2022-10-11T20:24:12.424Z,11.70
2022-10-11T20:26:39.613Z,12.98
2022-10-11T20:29:06.834Z,11.98
2022-10-11T20:31:36.442Z,12.93
2022-10-11T20:34:05.041Z,14.18
2022-10-11T20:36:32.889Z,13.27
2022-10-11T20:39:00.564Z,10.57
2022-10-11T20:41:31.847Z,12.25
2022-10-11T20:44:00.215Z,13.43
2022-10-11T20:46:29.717Z,14.85
2022-10-11T20:49:01.602Z,17.17
2022-10-11T20:51:30.081Z,14.93
2022-10-11T20:53:57.487Z,12.48
2022-10-11T20:56:24.739Z,16.73
2022-10-11T20:58:52.680Z,16.90
2022-10-11T21:01:21.084Z,15.70
2022-10-11T21:03:48.404Z,11.20
2022-10-11T21:06:15.552Z,8.30
2022-10-11T21:08:42.723Z,10.90
2022-10-11T21:11:11.739Z,16.92
2022-10-11T21:16:06.638Z,10.48
2022-10-11T21:18:33.933Z,18.42
2022-10-11T21:21:10.812Z,12.20
2022-10-11T21:23:38.394Z,9.27
2022-10-11T21:26:06.496Z,11.27
2022-10-11T21:28:34.085Z,10.98
2022-10-11T21:31:08.320Z,8.68
2022-10-11T21:33:35.618Z,12.32
2022-10-11T21:36:09.386Z,5.25
2022-10-11T21:38:36.795Z,10.32
2022-10-11T21:41:07.784Z,13.45
2022-10-11T21:43:36.049Z,7.13
2022-10-11T21:46:14.604Z,8.60
2022-10-11T21:48:41.765Z,12.45
2022-10-11T21:53:40.655Z,6.68
2022-10-11T21:56:07.871Z,12.30
2022-10-11T21:58:34.922Z,12.23
2022-10-11T22:01:02.113Z,17.33
2022-10-11T22:03:29.328Z,11.60
2022-10-11T22:05:56.411Z,11.13
2022-10-11T22:08:23.732Z,9.32
2022-10-11T22:10:55.395Z,9.55
2022-10-11T22:13:22.488Z,9.52
2022-10-11T22:15:51.806Z,10.57
2022-10-11T22:18:18.896Z,9.00
2022-10-11T22:20:46.216Z,8.95
2022-10-11T22:23:15.496Z,10.00
2022-10-11T22:25:42.669Z,10.30
2022-10-11T22:28:09.920Z,10.77
2022-10-11T22:30:37.043Z,7.55
2022-10-11T22:33:04.172Z,12.18
2022-10-11T22:35:33.605Z,11.00
2022-10-11T22:38:06.453Z,11.25
2022-10-11T22:40:33.610Z,10.57
2022-10-11T22:43:00.718Z,9.52
2022-10-11T22:45:27.965Z,9.30
2022-10-11T22:47:59.508Z,13.35
2022-10-11T22:50:28.895Z,16.92
2022-10-11T22:52:56.002Z,9.77
2022-10-11T22:55:23.463Z,13.55
2022-10-11T22:57:50.483Z,15.38
2022-10-11T23:00:19.706Z,9.77
2022-10-11T23:02:46.765Z,12.05
2022-10-11T23:05:13.834Z,13.23
2022-10-11T23:07:41.069Z,11.88
2022-10-11T23:10:08.303Z,11.65
2022-10-11T23:12:35.368Z,12.57
2022-10-11T23:15:02.414Z,10.88
2022-10-11T23:17:29.464Z,8.82
2022-10-11T23:19:56.535Z,15.98
2022-10-11T23:22:25.859Z,12.90
2022-10-11T23:24:52.937Z,10.48
2022-10-11T23:27:20.038Z,8.60
2022-10-11T23:29:47.111Z,14.65
2022-10-11T23:32:14.277Z,10.13
2022-10-11T23:34:41.359Z,10.77
2022-10-11T23:37:08.581Z,11.98
2022-10-11T23:39:35.692Z,10.65
2022-10-11T23:42:02.803Z,14.25
2022-10-11T23:44:29.915Z,13.80
2022-10-11T23:46:57.028Z,11.95
2022-10-11T23:49:24.138Z,10.75
2022-10-11T23:51:51.265Z,10.00
2022-10-11T23:54:18.334Z,17.15
2022-10-11T23:56:45.400Z,11.65
2022-10-11T23:59:12.510Z,11.93
